Time;durP1;ratioP1;P1;durP2;ratioP2;P2;SDS_P1;SDS_P2;PMS_P1;PMS_P2;Temp;Humidity;BMP_temperature;BMP_pressure;BME280_temperature;BME280_humidity;BME280_pressure;Samples;Min_cycle;Max_cycle;Signal;HPM_P1;HPM_P2
2024/01/12 00:01:02;;;;;;;14.25;6.57;;;0.30;99.90;;;-0.12;100.00;102740.88;5239737;28;20052;-46
2024/01/12 00:03:37;;;;;;;17.83;6.47;;;0.20;99.90;;;-0.11;100.00;102745.25;5258081;28;20056;-47
2024/01/12 00:06:12;;;;;;;8.15;4.45;;;0.20;99.90;;;-0.09;100.00;102741.19;5234689;28;20144;-46
2024/01/12 00:08:46;;;;;;;;;;;0.30;99.90;;;-0.08;100.00;102737.88;5234740;28;20052;-47
2024/01/12 00:11:18;;;;;;;15.32;5.32;;;0.30;99.90;;;-0.06;100.00;102726.16;5236762;28;19924;-45
2024/01/12 00:13:51;;;;;;;18.13;6.00;;;0.30;99.90;;;-0.03;100.00;102731.59;5237300;28;20063;-46
2024/01/12 00:16:26;;;;;;;8.98;5.25;;;0.30;99.90;;;-0.01;100.00;102732.66;5238537;28;20523;-46
2024/01/12 00:18:58;;;;;;;15.23;5.03;;;0.30;99.90;;;0.02;100.00;102720.19;5230343;28;20398;-46
2024/01/12 00:21:31;;;;;;;10.10;5.32;;;0.40;99.90;;;0.05;100.00;102714.47;5236388;28;20407;-46
2024/01/12 00:24:05;;;;;;;10.85;4.80;;;0.40;99.90;;;0.05;100.00;102715.38;5235941;28;20045;-46
2024/01/12 00:26:37;;;;;;;13.38;6.10;;;0.40;99.90;;;0.04;100.00;102718.69;5227107;28;20056;-46
2024/01/12 00:29:10;;;;;;;13.57;5.55;;;0.40;99.90;;;0.04;100.00;102716.13;5234645;28;20051;-47
2024/01/12 00:31:42;;;;;;;14.57;5.78;;;0.40;99.90;;;0.04;100.00;102711.00;5233956;28;20059;-46
2024/01/12 00:34:17;;;;;;;16.77;5.63;;;0.40;99.90;;;0.05;100.00;102712.81;5232191;28;20079;-46
2024/01/12 00:36:53;;;;;;;14.07;6.38;;;0.40;99.90;;;0.07;100.00;102718.13;5236769;28;20482;-47
2024/01/12 00:39:27;;;;;;;;;;;0.50;99.90;;;0.08;100.00;102717.38;5248271;28;20532;-46
2024/01/12 00:41:59;;;;;;;10.05;5.03;;;0.40;99.90;;;0.09;100.00;102720.09;5234474;28;19921;-46
2024/01/12 00:44:32;;;;;;;14.52;5.97;;;0.40;99.90;;;0.10;100.00;102719.34;5239221;28;20510;-46
2024/01/12 00:47:04;;;;;;;12.40;4.80;;;0.50;99.90;;;0.11;100.00;102718.59;5232717;28;20414;-47
2024/01/12 00:49:37;;;;;;;16.38;5.45;;;0.50;99.90;;;0.12;100.00;102728.09;5239783;28;20049;-46
2024/01/12 00:52:09;;;;;;;13.60;6.07;;;0.50;99.90;;;0.12;100.00;102724.63;5248339;28;20150;-46
2024/01/12 00:54:43;;;;;;;8.63;5.30;;;0.50;99.90;;;0.13;100.00;102727.38;5237176;28;20048;-46
2024/01/12 00:57:15;;;;;;;11.80;5.22;;;0.50;99.90;;;0.16;100.00;102737.06;5233428;28;20118;-48
2024/01/12 00:59:48;;;;;;;10.80;5.55;;;0.50;99.90;;;0.15;100.00;102731.00;5235501;28;20107;-46
2024/01/12 01:02:20;;;;;;;17.33;4.95;;;0.50;99.90;;;0.16;100.00;102740.53;5234726;28;20049;-46
2024/01/12 01:04:53;;;;;;;14.30;7.55;;;0.50;99.90;;;0.16;100.00;102737.06;5228090;28;20079;-47
2024/01/12 01:07:25;;;;;;;14.45;5.03;;;0.50;99.90;;;0.15;100.00;102741.28;5229400;28;20534;-47
2024/01/12 01:09:59;;;;;;;11.65;5.63;;;0.50;99.90;;;0.15;100.00;102736.13;5237725;28;20090;-47
2024/01/12 01:12:31;;;;;;;21.05;8.00;;;0.50;99.90;;;0.14;100.00;102734.31;5231693;28;20047;-47
2024/01/12 01:15:06;;;;;;;18.20;5.75;;;0.50;99.90;;;0.13;100.00;102727.38;5233247;28;20052;-46
2024/01/12 01:17:39;;;;;;;18.20;6.68;;;0.50;99.90;;;0.13;100.00;102719.69;5243072;28;20052;-47
2024/01/12 01:20:14;;;;;;;16.50;6.85;;;0.50;99.90;;;0.12;100.00;102720.41;5234295;28;20543;-46
2024/01/12 01:22:47;;;;;;;13.65;5.70;;;0.50;99.90;;;0.15;100.00;102719.84;5232542;28;20037;-47
2024/01/12 01:25:21;;;;;;;15.52;7.10;;;0.50;99.90;;;0.15;100.00;102715.63;5229297;28;20527;-46
2024/01/12 01:27:54;;;;;;;30.85;7.78;;;0.50;99.90;;;0.16;100.00;102711.41;5236450;28;20053;-46
2024/01/12 01:30:27;;;;;;;12.90;6.97;;;0.50;99.90;;;0.14;100.00;102713.81;5231889;28;20048;-46
2024/01/12 01:32:59;;;;;;;20.35;8.10;;;0.50;99.90;;;0.10;100.00;102721.91;5235229;28;20049;-47
2024/01/12 01:35:32;;;;;;;14.98;6.65;;;0.50;99.90;;;0.11;100.00;102727.94;5232808;28;20041;-46
2024/01/12 01:38:05;;;;;;;19.02;7.63;;;0.50;99.90;;;0.08;100.00;102723.41;5225335;28;20060;-47
2024/01/12 01:40:39;;;;;;;14.20;7.45;;;0.50;99.90;;;0.08;100.00;102736.22;5232183;28;20535;-46
2024/01/12 01:43:12;;;;;;;16.30;8.02;;;0.50;99.90;;;0.07;100.00;102733.50;5232867;28;20048;-46
2024/01/12 01:45:44;;;;;;;16.90;6.95;;;0.40;99.90;;;0.05;100.00;102738.44;5234925;28;20574;-46
2024/01/12 01:48:17;;;;;;;17.45;7.70;;;0.40;99.90;;;0.06;100.00;102739.34;5229611;28;20056;-47
2024/01/12 01:50:49;;;;;;;15.52;7.50;;;0.50;99.90;;;0.07;100.00;102742.13;5237215;28;20052;-46
2024/01/12 01:53:23;;;;;;;19.20;6.63;;;0.50;99.90;;;0.09;100.00;102739.72;5238637;28;20067;-46
2024/01/12 01:55:57;;;;;;;15.93;7.63;;;0.40;99.90;;;0.10;100.00;102737.28;5240532;28;20519;-47
2024/01/12 01:58:34;;;;;;;20.63;8.05;;;0.40;99.90;;;0.11;100.00;102739.09;5237403;28;20442;-48
2024/01/12 02:01:07;;;;;;;30.73;8.00;;;0.50;99.90;;;0.06;100.00;102730.00;5230743;28;20045;-47
2024/01/12 02:03:41;;;;;;;18.45;8.65;;;0.50;99.90;;;0.03;100.00;102737.38;5240010;28;20061;-46
2024/01/12 02:06:13;;;;;;;15.73;7.40;;;0.40;99.90;;;0.02;100.00;102748.41;5228487;28;20055;-47
2024/01/12 02:08:47;;;;;;;11.63;6.50;;;0.40;99.90;;;0.03;100.00;102741.59;5230321;28;20045;-46
2024/01/12 02:11:21;;;;;;;19.75;7.85;;;0.40;99.90;;;0.04;100.00;102739.19;5227944;28;20094;-46
2024/01/12 02:13:53;;;;;;;16.88;6.53;;;0.40;99.90;;;0.09;100.00;102744.84;5222989;28;20089;-46
2024/01/12 02:16:29;;;;;;;22.17;8.90;;;0.50;99.90;;;0.12;100.00;102740.00;5230450;28;20041;-45
2024/01/12 02:19:01;;;;;;;;;;;0.50;99.90;;;0.13;100.00;102732.50;5225069;28;20566;-45
2024/01/12 02:21:35;;;;;;;13.77;7.15;;;0.50;99.90;;;0.17;100.00;102734.63;5248765;28;20104;-46
2024/01/12 02:24:07;;;;;;;16.50;7.00;;;0.50;99.90;;;0.20;100.00;102736.63;5237776;28;20537;-46
2024/01/12 02:26:40;;;;;;;14.90;7.30;;;0.60;99.90;;;0.21;100.00;102739.38;5237253;28;20053;-46
2024/01/12 02:29:12;;;;;;;13.10;7.07;;;0.60;99.90;;;0.24;100.00;102734.53;5237685;28;20132;-46
2024/01/12 02:31:45;;;;;;;13.38;5.63;;;0.60;99.90;;;0.25;100.00;102736.34;5236201;28;20419;-46
2024/01/12 02:34:18;;;;;;;18.48;6.95;;;0.60;99.90;;;0.28;100.00;102733.22;5228722;28;20040;-46
2024/01/12 02:36:51;;;;;;;16.05;6.55;;;0.60;99.90;;;0.30;100.00;102735.94;5233640;28;20077;-46
2024/01/12 02:39:24;;;;;;;17.42;7.03;;;0.60;99.90;;;0.32;100.00;102729.31;5226457;28;20055;-46
2024/01/12 02:41:57;;;;;;;16.02;6.90;;;0.70;99.90;;;0.32;100.00;102724.19;5236180;28;20057;-46
2024/01/12 02:44:29;;;;;;;16.58;7.85;;;0.70;99.90;;;0.34;100.00;102721.06;5233473;28;20049;-46
2024/01/12 02:47:02;;;;;;;17.58;5.93;;;0.70;99.90;;;0.37;100.00;102717.88;5231461;28;20404;-46
2024/01/12 02:49:34;;;;;;;17.67;8.57;;;0.70;99.90;;;0.37;100.00;102723.03;5227166;28;20114;-46
2024/01/12 02:52:08;;;;;;;17.23;7.60;;;0.70;99.90;;;0.40;100.00;102720.81;5235135;28;20048;-46
2024/01/12 02:54:43;;;;;;;19.60;7.78;;;0.70;99.90;;;0.40;100.00;102723.38;5230211;28;20060;-47
2024/01/12 02:57:16;;;;;;;;;;;0.80;99.90;;;0.41;100.00;102725.19;5227472;28;20049;-46
2024/01/12 02:59:48;;;;;;;11.98;5.18;;;0.80;99.90;;;0.41;100.00;102720.06;5228029;28;20370;-46
2024/01/12 03:02:20;;;;;;;12.38;6.38;;;0.80;99.90;;;0.42;100.00;102716.72;5235762;28;20052;-47
2024/01/12 03:04:53;;;;;;;14.63;6.75;;;0.80;99.90;;;0.43;100.00;102713.41;5239781;28;20044;-47
2024/01/12 03:07:26;;;;;;;16.40;7.25;;;0.80;99.90;;;0.43;100.00;102710.84;5246528;28;20057;-47
2024/01/12 03:09:59;;;;;;;14.07;5.93;;;0.80;99.90;;;0.43;100.00;102709.19;5235695;28;20407;-47
2024/01/12 03:12:35;;;;;;;11.82;6.15;;;0.80;99.90;;;0.45;100.00;102706.78;5229803;28;20511;-48
2024/01/12 03:15:08;;;;;;;12.68;5.70;;;0.80;99.90;;;0.45;100.00;102704.22;5234418;28;20087;-47
2024/01/12 03:17:41;;;;;;;13.75;6.22;;;0.80;99.90;;;0.47;100.00;102701.06;5228442;28;20053;-47
2024/01/12 03:20:14;;;;;;;20.05;6.10;;;0.80;99.90;;;0.48;100.00;102696.84;5229399;28;20041;-46
2024/01/12 03:22:48;;;;;;;21.35;8.35;;;0.80;99.90;;;0.48;100.00;102696.84;5227401;28;20049;-46
2024/01/12 03:25:20;;;;;;;17.13;8.52;;;0.80;99.90;;;0.47;100.00;102692.47;5236259;28;20037;-46
2024/01/12 03:27:52;;;;;;;21.25;7.00;;;0.80;99.90;;;0.47;100.00;102695.03;5238938;28;20045;-46
2024/01/12 03:30:25;;;;;;;16.73;7.15;;;0.80;99.90;;;0.47;100.00;102689.91;5229793;28;20076;-46
2024/01/12 03:33:00;;;;;;;19.52;5.90;;;0.80;99.90;;;0.48;100.00;102697.75;5228819;28;20491;-47
2024/01/12 03:35:33;;;;;;;;;;;0.80;99.90;;;0.48;100.00;102686.59;5226420;28;20045;-46
2024/01/12 03:38:06;;;;;;;10.27;5.13;;;0.80;99.90;;;0.48;100.00;102692.63;5231405;28;20349;-47
2024/01/12 03:40:39;;;;;;;15.60;7.05;;;0.80;99.90;;;0.48;100.00;102682.34;5241242;28;20411;-47
2024/01/12 03:43:11;;;;;;;13.93;6.32;;;0.80;99.90;;;0.49;100.00;102693.53;5235024;28;20134;-47
2024/01/12 03:45:44;;;;;;;13.90;7.40;;;0.80;99.90;;;0.49;100.00;102693.53;5236101;28;20060;-46
2024/01/12 03:48:16;;;;;;;16.52;7.40;;;0.80;99.90;;;0.48;100.00;102690.06;5227331;28;20048;-46
2024/01/12 03:50:51;;;;;;;16.02;7.10;;;0.80;99.90;;;0.49;100.00;102693.53;5226501;28;20049;-46
2024/01/12 03:53:25;;;;;;;;;;;0.80;99.90;;;0.52;100.00;102693.84;5231730;28;20410;-47
2024/01/12 03:55:58;;;;;;;8.35;5.53;;;0.80;99.90;;;0.52;100.00;102687.06;5224165;28;19924;-47
2024/01/12 03:58:30;;;;;;;20.13;7.40;;;0.80;99.90;;;0.52;100.00;102689.66;5226341;28;20049;-46
2024/01/12 04:01:03;;;;;;;11.43;6.35;;;0.90;99.90;;;0.50;100.00;102695.34;5233657;28;20053;-47
2024/01/12 04:03:35;;;;;;;17.60;6.80;;;0.90;99.90;;;0.52;100.00;102686.13;5237380;28;20509;-45
2024/01/12 04:06:11;;;;;;;16.50;6.68;;;0.90;99.90;;;0.53;100.00;102691.47;5234911;28;20067;-46
2024/01/12 04:08:44;;;;;;;11.68;6.53;;;0.90;99.90;;;0.54;100.00;102685.56;5239144;28;20063;-45
2024/01/12 04:11:23;;;;;;;18.67;8.13;;;0.90;99.90;;;0.57;100.00;102691.75;5235771;28;20541;-45
2024/01/12 04:13:56;;;;;;;18.60;7.72;;;0.90;99.90;;;0.54;100.00;102687.22;5227914;28;20045;-46
2024/01/12 04:16:28;;;;;;;18.25;9.20;;;0.90;99.90;;;0.57;100.00;102689.19;5226333;28;20103;-46
2024/01/12 04:19:00;;;;;;;16.88;7.63;;;0.90;99.90;;;0.59;100.00;102686.06;5241627;28;20582;-46
2024/01/12 04:21:33;;;;;;;20.13;9.00;;;0.90;99.90;;;0.61;100.00;102676.84;5226936;28;20067;-46
2024/01/12 04:24:07;;;;;;;26.73;10.90;;;1.00;99.90;;;0.63;100.00;102683.03;5231487;28;20052;-46
2024/01/12 04:26:39;;;;;;;17.83;7.53;;;1.00;99.90;;;0.66;100.00;102682.47;5229735;28;20083;-47
2024/01/12 04:29:11;;;;;;;20.48;8.75;;;1.00;99.90;;;0.68;100.00;102684.44;5231462;28;20048;-45
2024/01/12 04:31:44;;;;;;;13.75;6.13;;;1.10;99.90;;;0.70;100.00;102700.91;5230262;28;20063;-45
2024/01/12 04:34:16;;;;;;;27.42;9.38;;;1.10;99.90;;;0.71;100.00;102687.31;5230578;28;20530;-46
2024/01/12 04:36:49;;;;;;;19.80;9.27;;;1.10;99.90;;;0.73;100.00;102685.84;5236694;28;20056;-46
2024/01/12 04:39:23;;;;;;;17.08;7.68;;;1.10;99.90;;;0.74;100.00;102684.19;5232340;28;20492;-46
2024/01/12 04:41:55;;;;;;;19.90;8.57;;;1.10;99.90;;;0.75;100.00;102688.56;5230635;28;20061;-45
2024/01/12 04:44:28;;;;;;;17.52;8.43;;;1.10;99.90;;;0.76;100.00;102693.84;5224123;28;20068;-46
2024/01/12 04:47:00;;;;;;;16.83;8.57;;;1.10;99.90;;;0.78;100.00;102683.72;5231735;28;20053;-47
2024/01/12 04:49:32;;;;;;;17.40;8.05;;;1.10;99.90;;;0.78;100.00;102683.72;5234914;28;20052;-46
2024/01/12 04:52:06;;;;;;;17.10;7.72;;;1.10;99.90;;;0.79;100.00;102680.44;5237843;28;20048;-46
2024/01/12 04:54:40;;;;;;;21.92;9.55;;;1.10;99.90;;;0.81;100.00;102679.81;5226601;28;20051;-47
2024/01/12 04:57:13;;;;;;;16.98;6.53;;;1.10;99.90;;;0.80;100.00;102674.53;5233124;28;20135;-47
2024/01/12 04:59:46;;;;;;;16.63;8.02;;;1.20;99.90;;;0.79;100.00;102673.63;5228717;28;20533;-47
2024/01/12 05:02:19;;;;;;;27.92;9.05;;;1.10;99.90;;;0.79;100.00;102670.16;5227622;28;20444;-47
2024/01/12 05:04:51;;;;;;;21.20;8.52;;;1.10;99.90;;;0.79;100.00;102671.06;5230328;28;20063;-46
2024/01/12 05:07:23;;;;;;;32.05;10.35;;;1.10;99.90;;;0.80;100.00;102669.41;5229642;28;20061;-46
2024/01/12 05:09:57;;;;;;;18.55;8.23;;;1.10;99.90;;;0.80;100.00;102657.47;5229423;28;20048;-47
2024/01/12 05:12:30;;;;;;;22.13;9.70;;;1.20;99.90;;;0.81;100.00;102658.38;5226549;28;20492;-47
2024/01/12 05:15:02;;;;;;;18.75;8.02;;;1.20;99.90;;;0.81;100.00;102666.09;5240188;28;20411;-46
2024/01/12 05:17:35;;;;;;;18.40;7.72;;;1.20;99.90;;;0.84;100.00;102673.19;5229825;28;20515;-46
2024/01/12 05:20:09;;;;;;;21.70;7.00;;;1.20;99.90;;;0.84;100.00;102678.31;5226105;28;20045;-47
2024/01/12 05:22:41;;;;;;;22.92;9.43;;;1.20;99.90;;;0.83;100.00;102682.53;5237445;28;20519;-47
2024/01/12 05:25:15;;;;;;;16.90;8.18;;;1.20;99.90;;;0.84;100.00;102678.31;5224987;28;20059;-47
2024/01/12 05:27:48;;;;;;;16.10;6.93;;;1.20;99.90;;;0.85;100.00;102675.00;5232242;28;20147;-47
2024/01/12 05:30:20;;;;;;;14.27;7.38;;;1.20;99.90;;;0.87;100.00;102663.25;5240097;28;20052;-46
2024/01/12 05:32:52;;;;;;;20.20;8.30;;;1.20;99.90;;;0.87;100.00;102659.00;5241533;28;20564;-47
2024/01/12 05:35:25;;;;;;;23.52;9.48;;;1.20;99.90;;;0.87;100.00;102659.00;5236058;28;20048;-46
2024/01/12 05:37:57;;;;;;;18.83;8.77;;;1.20;99.90;;;0.88;100.00;102660.81;5245424;28;20060;-46
2024/01/12 05:40:31;;;;;;;25.27;9.07;;;1.20;99.90;;;0.88;100.00;102663.41;5237470;28;20048;-46
2024/01/12 05:43:03;;;;;;;24.17;10.95;;;1.20;99.90;;;0.88;100.00;102665.97;5230363;28;20199;-47
2024/01/12 05:45:36;;;;;;;23.77;9.45;;;1.20;99.90;;;0.89;100.00;102669.44;5229778;28;20041;-47
2024/01/12 05:48:08;;;;;;;24.70;9.95;;;1.20;99.90;;;0.89;100.00;102670.34;5239204;28;20523;-46
2024/01/12 05:50:41;;;;;;;20.25;8.95;;;1.30;99.90;;;0.90;100.00;102668.69;5233227;28;20056;-46
2024/01/12 05:53:13;;;;;;;22.00;8.07;;;1.30;99.90;;;0.91;100.00;102673.06;5228284;28;20071;-46
2024/01/12 05:55:47;;;;;;;26.27;8.98;;;1.30;99.90;;;0.89;100.00;102669.44;5238982;28;20354;-46
2024/01/12 05:58:20;;;;;;;21.60;9.52;;;1.30;99.90;;;0.89;100.00;102672.00;5234043;28;20041;-46
2024/01/12 06:00:52;;;;;;;24.90;8.80;;;1.30;99.90;;;0.89;100.00;102678.03;5231595;28;20064;-47
2024/01/12 06:03:27;;;;;;;28.45;9.15;;;1.20;99.90;;;0.89;100.00;102682.28;5237882;28;20056;-48
2024/01/12 06:06:00;;;;;;;;;;;1.30;99.90;;;0.90;100.00;102678.94;5235588;28;20048;-47
2024/01/12 06:08:32;;;;;;;18.40;6.97;;;1.30;99.90;;;0.91;100.00;102691.03;5235929;28;19924;-47
2024/01/12 06:11:06;;;;;;;16.05;6.78;;;1.20;99.90;;;0.92;100.00;102692.88;5241747;28;20044;-47
2024/01/12 06:13:40;;;;;;;18.38;7.63;;;1.30;99.90;;;0.93;100.00;102694.69;5230102;28;20044;-47
2024/01/12 06:16:12;;;;;;;20.00;8.32;;;1.30;99.90;;;0.94;100.00;102687.13;5215335;28;20062;-48
2024/01/12 06:18:45;;;;;;;22.02;9.85;;;1.30;99.90;;;0.96;100.00;102689.84;5238195;28;20056;-48
2024/01/12 06:21:17;;;;;;;19.33;7.32;;;1.30;99.90;;;0.95;100.00;102688.97;5234768;28;20043;-48
2024/01/12 06:23:50;;;;;;;24.65;8.52;;;1.30;99.90;;;0.98;100.00;102688.38;5245346;28;20511;-48
2024/01/12 06:26:23;;;;;;;21.73;7.25;;;1.30;99.90;;;0.98;100.00;102693.53;5243415;28;20040;-47
2024/01/12 06:28:57;;;;;;;20.08;9.10;;;1.30;99.90;;;0.98;100.00;102693.53;5241810;28;20045;-47
2024/01/12 06:31:33;;;;;;;16.80;7.25;;;1.30;99.90;;;1.00;100.00;102704.84;5239396;28;20048;-47
2024/01/12 06:34:05;;;;;;;30.08;9.77;;;1.30;99.90;;;1.00;100.00;102700.63;5233266;28;20044;-46
2024/01/12 06:36:43;;;;;;;20.10;8.75;;;1.30;99.90;;;1.02;100.00;102705.91;5248121;28;20056;-48
2024/01/12 06:39:19;;;;;;;22.65;8.50;;;1.30;99.90;;;1.03;100.00;102712.84;5239437;28;20142;-46
2024/01/12 06:41:53;;;;;;;16.70;8.68;;;1.40;99.90;;;1.01;100.00;102709.22;5236478;28;20128;-47
2024/01/12 06:44:25;;;;;;;21.08;7.78;;;1.40;99.90;;;1.02;100.00;102709.38;5238166;28;20057;-48
2024/01/12 06:46:57;;;;;;;25.15;9.27;;;1.40;99.90;;;1.02;100.00;102711.94;5238268;28;20442;-48
2024/01/12 06:49:30;;;;;;;31.85;10.32;;;1.40;99.90;;;1.04;100.00;102717.22;5238146;28;20060;-47
2024/01/12 06:52:02;;;;;;;24.40;7.43;;;1.40;99.90;;;1.05;100.00;102711.38;5233641;28;20048;-48
2024/01/12 06:54:35;;;;;;;19.55;8.55;;;1.40;99.90;;;1.06;100.00;102710.63;5249011;28;20053;-47
2024/01/12 06:57:08;;;;;;;17.00;7.47;;;1.40;99.90;;;1.07;100.00;102699.59;5239464;28;20036;-47
2024/01/12 06:59:41;;;;;;;22.98;7.90;;;1.40;99.90;;;1.07;100.00;102699.59;5245526;28;20036;-47
2024/01/12 07:02:14;;;;;;;19.23;6.18;;;1.40;99.90;;;1.07;100.00;102700.50;5226106;28;20048;-47
2024/01/12 07:04:46;;;;;;;28.02;10.25;;;1.40;99.90;;;1.07;100.00;102704.72;5239247;28;20083;-47
2024/01/12 07:07:19;;;;;;;24.70;7.90;;;1.40;99.90;;;1.08;100.00;102702.31;5249309;28;20163;-48
2024/01/12 07:09:52;;;;;;;10.10;5.53;;;1.40;99.90;;;1.09;100.00;102704.13;5240660;28;20036;-48
2024/01/12 07:12:25;;;;;;;17.13;7.40;;;1.40;99.90;;;1.09;100.00;102698.97;5232548;28;20052;-47
2024/01/12 07:14:58;;;;;;;17.83;6.32;;;1.40;99.90;;;1.11;100.00;102700.78;5244283;28;20048;-46
2024/01/12 07:17:30;;;;;;;20.80;7.65;;;1.40;99.90;;;1.11;100.00;102701.72;5248623;28;20052;-46
2024/01/12 07:20:03;;;;;;;14.10;7.25;;;1.40;99.90;;;1.10;100.00;102684.47;5240512;28;20045;-47
2024/01/12 07:22:36;;;;;;;18.17;7.15;;;1.40;99.90;;;1.11;100.00;102685.38;5252883;28;20048;-47
2024/01/12 07:25:11;;;;;;;23.83;7.72;;;1.40;99.90;;;1.12;100.00;102677.84;5240768;28;20511;-47
2024/01/12 07:27:45;;;;;;;22.55;7.30;;;1.50;99.90;;;1.15;100.00;102688.44;5226356;28;20052;-47
2024/01/12 07:30:17;;;;;;;17.75;5.90;;;1.40;99.90;;;1.17;100.00;102680.88;5246669;28;20330;-47
2024/01/12 07:32:51;;;;;;;18.73;5.60;;;1.50;99.90;;;1.16;100.00;102677.41;5246054;28;20064;-47
2024/01/12 07:35:23;;;;;;;19.02;6.90;;;1.50;99.90;;;1.16;100.00;102681.63;5236883;28;20610;-46
2024/01/12 07:37:55;;;;;;;15.75;6.78;;;1.50;99.90;;;1.15;100.00;102688.44;5232086;28;20041;-46
2024/01/12 07:40:28;;;;;;;14.43;5.93;;;1.50;99.90;;;1.15;100.00;102683.28;5241591;28;20393;-48
2024/01/12 07:43:02;;;;;;;14.18;5.38;;;1.50;99.90;;;1.15;100.00;102693.56;5232462;28;20053;-47
2024/01/12 07:45:34;;;;;;;24.00;8.07;;;1.50;99.90;;;1.16;100.00;102681.63;5237962;28;20056;-48
2024/01/12 07:48:07;;;;;;;21.02;6.50;;;1.50;99.90;;;1.16;100.00;102684.19;5235849;28;20044;-47
2024/01/12 07:50:40;;;;;;;10.25;5.18;;;1.50;99.90;;;1.15;100.00;102693.56;5234166;28;20135;-47
2024/01/12 07:53:12;;;;;;;14.98;5.70;;;1.50;99.90;;;1.17;100.00;102691.16;5238668;28;20443;-46
2024/01/12 07:55:45;;;;;;;14.55;5.28;;;1.50;99.90;;;1.17;100.00;102692.06;5243727;28;20697;-48
2024/01/12 07:58:20;;;;;;;11.65;4.32;;;1.50;99.90;;;1.19;100.00;102698.28;5237508;28;20052;-46
2024/01/12 08:00:52;;;;;;;18.15;5.57;;;1.50;99.90;;;1.22;100.00;102700.25;5235795;28;20135;-47
2024/01/12 08:03:24;;;;;;;16.33;6.95;;;1.50;99.90;;;1.23;100.00;102696.91;5236045;28;20041;-46
2024/01/12 08:05:57;;;;;;;12.90;5.32;;;1.50;99.90;;;1.24;100.00;102697.09;5236449;28;20048;-46
2024/01/12 08:08:29;;;;;;;13.63;4.90;;;1.60;99.90;;;1.25;100.00;102701.47;5237642;28;20079;-46
2024/01/12 08:11:01;;;;;;;14.52;6.35;;;1.60;99.90;;;1.26;100.00;102713.56;5232851;28;20043;-47
2024/01/12 08:13:38;;;;;;;10.63;4.40;;;1.60;99.90;;;1.24;100.00;102712.50;5240515;28;20052;-47
2024/01/12 08:16:11;;;;;;;10.82;5.47;;;1.60;99.90;;;1.26;100.00;102712.66;5241114;28;20040;-47
2024/01/12 08:18:43;;;;;;;12.05;6.53;;;1.60;99.90;;;1.28;100.00;102713.72;5236257;28;20049;-47
2024/01/12 08:21:18;;;;;;;11.95;5.15;;;1.60;99.90;;;1.28;100.00;102708.56;5237622;28;20432;-47
2024/01/12 08:23:51;;;;;;;15.00;4.78;;;1.60;99.90;;;1.26;100.00;102713.56;5236676;28;20037;-47
2024/01/12 08:26:23;;;;;;;9.90;4.90;;;1.60;99.90;;;1.28;100.00;102712.06;5239870;28;20044;-46
2024/01/12 08:29:01;;;;;;;11.90;6.47;;;1.60;99.90;;;1.28;100.00;102706.91;5247520;28;20048;-46
2024/01/12 08:31:33;;;;;;;17.20;5.75;;;1.60;99.90;;;1.30;100.00;102704.50;5235430;28;20507;-46
2024/01/12 08:34:06;;;;;;;13.85;5.90;;;1.60;99.90;;;1.29;100.00;102698.44;5233725;28;20045;-47
2024/01/12 08:36:38;;;;;;;19.38;6.63;;;1.60;99.90;;;1.31;100.00;102696.97;5240102;28;20059;-46
2024/01/12 08:39:11;;;;;;;14.60;5.57;;;1.60;99.90;;;1.32;100.00;102687.59;5232310;28;20502;-47
2024/01/12 08:41:43;;;;;;;8.93;4.50;;;1.60;99.90;;;1.32;100.00;102693.63;5237351;28;20059;-47
2024/01/12 08:44:17;;;;;;;20.20;6.10;;;1.60;99.90;;;1.34;100.00;102696.34;5236663;28;20049;-47
2024/01/12 08:46:50;;;;;;;17.40;6.72;;;1.60;99.90;;;1.34;100.00;102691.22;5241575;28;20525;-47
2024/01/12 08:49:22;;;;;;;13.18;5.10;;;1.70;99.90;;;1.35;100.00;102709.34;5240473;28;20041;-46
2024/01/12 08:51:54;;;;;;;11.40;5.43;;;1.70;99.90;;;1.36;100.00;102716.31;5237110;28;20044;-47
2024/01/12 08:54:27;;;;;;;11.35;5.10;;;1.70;99.90;;;1.33;100.00;102708.31;5237221;28;20049;-48
2024/01/12 08:56:59;;;;;;;13.27;5.47;;;1.70;99.90;;;1.35;100.00;102699.06;5237858;28;20036;-46
2024/01/12 08:59:36;;;;;;;16.75;6.57;;;1.70;99.90;;;1.34;100.00;102702.41;5237392;28;20056;-47
2024/01/12 09:02:09;;;;;;;18.67;7.22;;;1.70;99.90;;;1.34;100.00;102702.41;5235011;28;20052;-47
2024/01/12 09:04:41;;;;;;;11.13;5.57;;;1.70;99.90;;;1.34;100.00;102702.41;5235228;28;20322;-47
2024/01/12 09:07:14;;;;;;;13.77;5.82;;;1.70;99.90;;;1.38;100.00;102710.44;5244049;28;20381;-47
2024/01/12 09:09:46;;;;;;;14.63;5.90;;;1.70;99.90;;;1.37;100.00;102712.09;5251257;28;20060;-47
2024/01/12 09:12:18;;;;;;;16.50;5.90;;;1.70;99.90;;;1.41;100.00;102721.03;5235723;28;20541;-46
2024/01/12 09:14:52;;;;;;;15.98;6.70;;;1.70;99.90;;;1.43;100.00;102727.22;5248149;28;20072;-46
2024/01/12 09:17:24;;;;;;;21.48;6.60;;;1.70;99.90;;;1.44;100.00;102716.22;5240799;28;20040;-48
2024/01/12 09:19:57;;;;;;;14.35;6.15;;;1.80;99.90;;;1.47;100.00;102729.34;5232926;28;20055;-46
2024/01/12 09:22:29;;;;;;;17.45;7.28;;;1.80;99.90;;;1.48;100.00;102726.03;5240181;28;20122;-47
2024/01/12 09:25:01;;;;;;;19.17;6.95;;;1.80;99.90;;;1.48;100.00;102736.31;5243735;28;20843;-47
2024/01/12 09:27:37;;;;;;;20.95;7.68;;;1.80;99.90;;;2.28;100.00;102737.50;5243141;28;20412;-47
2024/01/12 09:30:11;;;;;;;;;;;2.30;99.90;;;2.31;100.00;102736.13;5234683;28;20048;-47
2024/01/12 09:32:44;;;;;;;23.17;7.43;;;2.40;99.90;;;2.16;100.00;102742.34;5235049;28;19924;-46
2024/01/12 09:35:16;;;;;;;20.80;6.20;;;2.40;99.90;;;2.02;100.00;102745.19;5241301;28;20527;-46
2024/01/12 09:37:49;;;;;;;17.80;7.20;;;2.40;99.90;;;1.92;100.00;102743.38;5242449;28;20048;-46
2024/01/12 09:40:21;;;;;;;16.15;7.35;;;2.30;99.90;;;1.85;100.00;102729.00;5252031;28;20102;-47
2024/01/12 09:42:57;;;;;;;15.13;6.72;;;2.30;99.90;;;1.81;100.00;102738.81;5242189;28;20056;-47
2024/01/12 09:45:37;;;;;;;17.63;7.38;;;2.20;99.90;;;1.80;100.00;102737.91;5251297;28;20129;-46
2024/01/12 09:48:09;;;;;;;18.27;8.23;;;2.20;99.90;;;1.79;100.00;102727.47;5251667;28;20508;-47
2024/01/12 09:50:44;;;;;;;14.80;5.85;;;2.20;99.90;;;1.71;100.00;102729.28;5244436;28;20071;-46
2024/01/12 09:53:16;;;;;;;15.02;5.68;;;2.10;99.90;;;1.69;100.00;102740.16;5245420;28;20044;-46
2024/01/12 09:55:49;;;;;;;8.57;4.38;;;2.10;99.90;;;1.82;100.00;102753.47;5250667;28;20127;-46
2024/01/12 09:58:24;;;;;;;16.13;6.80;;;2.20;99.90;;;2.10;100.00;102746.88;5241187;28;20075;-46
2024/01/12 10:00:58;;;;;;;15.40;6.38;;;2.30;99.90;;;2.03;100.00;102747.03;5260388;28;20041;-46
2024/01/12 10:03:34;;;;;;;17.75;6.50;;;2.40;99.90;;;1.92;100.00;102740.81;5253626;28;20125;-46
2024/01/12 10:06:07;;;;;;;22.17;7.82;;;2.30;99.90;;;1.84;100.00;102745.19;5235803;28;20052;-46
2024/01/12 10:08:40;;;;;;;20.23;6.55;;;2.20;99.90;;;1.78;100.00;102741.09;5247919;28;20056;-46
2024/01/12 10:11:13;;;;;;;23.48;7.32;;;2.10;99.90;;;1.73;100.00;102745.75;5238561;28;20048;-47
2024/01/12 10:13:45;;;;;;;13.88;6.28;;;2.10;99.90;;;1.73;100.00;102756.06;5241993;28;20060;-46
2024/01/12 10:16:20;;;;;;;20.35;6.38;;;2.10;99.90;;;1.70;100.00;102750.59;5245223;28;20052;-47
2024/01/12 10:18:53;;;;;;;14.10;5.90;;;2.00;99.90;;;1.67;100.00;102751.94;5253326;28;20049;-47
2024/01/12 10:21:25;;;;;;;15.05;6.50;;;2.00;99.90;;;1.65;100.00;102745.75;5236340;28;20067;-48
2024/01/12 10:24:02;;;;;;;13.93;6.68;;;2.00;99.90;;;1.63;100.00;102749.09;5250261;28;20056;-45
2024/01/12 10:26:35;;;;;;;13.90;5.88;;;2.00;99.90;;;1.64;100.00;102749.97;5238704;28;20094;-47
2024/01/12 10:29:07;;;;;;;16.13;6.03;;;2.00;99.90;;;1.65;100.00;102750.91;5242937;28;20052;-46
2024/01/12 10:31:42;;;;;;;18.40;6.97;;;1.90;99.90;;;1.64;100.00;102749.97;5240970;28;20072;-46
2024/01/12 10:34:15;;;;;;;18.83;7.63;;;1.90;99.90;;;1.61;100.00;102750.56;5247951;28;20045;-47
2024/01/12 10:36:50;;;;;;;15.48;4.97;;;2.00;99.90;;;1.59;100.00;102740.88;5235846;28;20055;-46
2024/01/12 10:39:24;;;;;;;18.73;8.07;;;1.90;99.90;;;1.57;100.00;102738.19;5232706;28;20052;-45